createdAt,value
2018-11-21T00:00:00.932Z,8.1
2018-11-21T00:10:00.937Z,8.2
2018-11-21T00:15:00.934Z,8.2
2018-11-21T00:20:00.953Z,7.6
2018-11-21T00:25:00.982Z,7.4
2018-11-21T00:30:00.954Z,6.9
2018-11-21T00:35:00.960Z,6.8
2018-11-21T00:40:00.953Z,7.1
2018-11-21T00:45:01.111Z,7.4
2018-11-21T00:50:01.611Z,7.6
2018-11-21T00:55:00.924Z,8.1
2018-11-21T01:00:00.931Z,7.9
2018-11-21T01:05:00.927Z,8.2
2018-11-21T01:10:00.924Z,8.6
2018-11-21T01:15:00.927Z,8.2
2018-11-21T01:20:00.927Z,7.7
2018-11-21T01:25:00.924Z,8.0
2018-11-21T01:30:00.954Z,8.2
2018-11-21T01:35:00.993Z,8.0
2018-11-21T01:40:00.937Z,8.4
2018-11-21T01:45:00.934Z,9.3
2018-11-21T01:50:00.941Z,9.4
2018-11-21T01:55:01.175Z,9.6
2018-11-21T02:00:00.947Z,9.7
2018-11-21T02:05:00.942Z,10.0
2018-11-21T02:10:00.949Z,10.3
2018-11-21T02:15:01.995Z,10.4
2018-11-21T02:20:00.952Z,9.9
2018-11-21T02:25:01.173Z,10.1
2018-11-21T02:30:00.961Z,10.3
2018-11-21T02:35:00.965Z,10.6
2018-11-21T02:40:00.961Z,11.4
2018-11-21T02:45:00.965Z,12.2
2018-11-21T02:50:00.966Z,12.4
2018-11-21T02:55:00.993Z,12.6
2018-11-21T03:00:01.196Z,12.8
2018-11-21T03:05:02.453Z,12.5
2018-11-21T03:10:00.970Z,12.5
2018-11-21T03:15:00.972Z,12.3
2018-11-21T03:20:00.973Z,12.6
2018-11-21T03:25:00.976Z,12.4
2018-11-21T03:30:00.976Z,12.8
2018-11-21T03:35:00.983Z,12.2
2018-11-21T03:40:01.052Z,12.3
2018-11-21T03:45:00.991Z,12.3
2018-11-21T03:50:01.017Z,12.3
2018-11-21T03:55:00.996Z,12.1
2018-11-21T04:00:00.993Z,13.3
2018-11-21T04:05:01.342Z,13.6
2018-11-21T04:10:01.140Z,14.0
2018-11-21T04:15:00.997Z,14.0
2018-11-21T04:20:00.999Z,15.0
2018-11-21T04:25:00.995Z,14.7
2018-11-21T04:30:00.999Z,14.5
2018-11-21T04:40:01.329Z,14.3
2018-11-21T04:45:01.011Z,13.4
2018-11-21T04:50:01.035Z,13.0
2018-11-21T04:55:01.024Z,13.6
2018-11-21T05:00:01.006Z,13.4
2018-11-21T05:05:01.010Z,13.2
2018-11-21T05:10:01.006Z,13.1
2018-11-21T05:15:01.080Z,13.0
2018-11-21T05:20:01.016Z,12.5
2018-11-21T05:25:01.016Z,12.6
2018-11-21T05:30:01.017Z,12.2
2018-11-21T05:35:01.041Z,11.8
2018-11-21T05:45:00.998Z,11.4
2018-11-21T05:50:01.029Z,11.2
2018-11-21T05:55:01.074Z,11.1
2018-11-21T06:00:01.004Z,11.4
2018-11-21T06:05:01.453Z,11.2
2018-11-21T06:10:01.046Z,11.4
2018-11-21T06:15:01.155Z,11.8
2018-11-21T06:20:01.029Z,11.5
2018-11-21T06:25:01.043Z,11.5
2018-11-21T06:30:01.024Z,11.6
2018-11-21T06:35:01.464Z,10.8
2018-11-21T06:40:02.497Z,10.4
2018-11-21T06:45:01.063Z,10.2
2018-11-21T06:50:01.061Z,10.1
2018-11-21T07:00:01.054Z,10.8
2018-11-21T07:05:01.132Z,10.5
2018-11-21T07:10:02.479Z,10.8
2018-11-21T07:15:01.066Z,10.5
2018-11-21T07:20:01.027Z,10.5
2018-11-21T07:25:01.062Z,10.3
2018-11-21T07:30:01.136Z,10.1
2018-11-21T07:35:01.117Z,10.5
2018-11-21T07:40:03.491Z,10.5
2018-11-21T07:45:01.110Z,10.5
2018-11-21T07:50:01.110Z,10.2
2018-11-21T07:55:01.117Z,10.1
2018-11-21T08:00:01.107Z,9.2
2018-11-21T08:10:00.819Z,9.4
2018-11-21T08:15:00.723Z,8.4
2018-11-21T08:20:00.892Z,8.9
2018-11-21T08:25:00.748Z,9.1
2018-11-21T08:30:00.743Z,8.6
2018-11-21T08:35:00.970Z,8.5
2018-11-21T08:45:00.787Z,8.3
2018-11-21T08:55:00.756Z,7.8
2018-11-21T09:00:00.787Z,7.6
2018-11-21T09:10:00.800Z,7.2
2018-11-21T09:15:00.843Z,7.2
2018-11-21T09:20:00.848Z,7.4
2018-11-21T09:25:00.813Z,7.2
2018-11-21T09:30:00.747Z,7.1
2018-11-21T09:35:00.780Z,7.1
2018-11-21T09:40:00.786Z,7.1
2018-11-21T09:45:00.787Z,7.2
2018-11-21T09:50:00.783Z,7.2
2018-11-21T09:55:01.133Z,6.8
2018-11-21T10:00:00.774Z,6.4
2018-11-21T10:05:01.104Z,6.4
2018-11-21T10:10:01.019Z,5.5
2018-11-21T10:15:00.799Z,5.5
2018-11-21T10:20:00.796Z,5.6
2018-11-21T10:25:00.799Z,6.0
2018-11-21T10:30:00.802Z,6.3
2018-11-21T10:35:00.805Z,6.7
2018-11-21T10:40:00.794Z,6.9
2018-11-21T10:45:00.818Z,7.1
2018-11-21T10:50:00.809Z,7.0
2018-11-21T10:55:00.822Z,6.3
2018-11-21T11:00:00.815Z,6.5
2018-11-21T11:05:00.812Z,6.3
2018-11-21T11:10:00.810Z,6.3
2018-11-21T11:15:00.820Z,6.0
2018-11-21T11:20:00.818Z,6.2
2018-11-21T11:25:01.469Z,5.6
2018-11-21T11:30:02.406Z,5.2
2018-11-21T11:35:00.825Z,5.1
2018-11-21T11:40:00.794Z,5.0
2018-11-21T11:45:00.850Z,4.8
2018-11-21T11:50:00.833Z,5.0
2018-11-21T12:00:00.933Z,5.4
2018-11-21T12:05:00.929Z,5.3
2018-11-21T12:10:00.873Z,5.3
2018-11-21T12:15:00.874Z,5.7
2018-11-21T12:20:00.896Z,5.7
2018-11-21T12:30:00.847Z,5.7
2018-11-21T12:35:02.535Z,5.5
2018-11-21T12:40:00.856Z,5.0
2018-11-21T12:45:00.922Z,4.6
2018-11-21T12:55:00.892Z,4.6
2018-11-21T13:00:01.484Z,4.6
2018-11-21T13:10:00.865Z,4.6
2018-11-21T13:15:00.871Z,4.6
2018-11-21T13:20:00.833Z,4.3
2018-11-21T13:25:00.874Z,4.4
2018-11-21T13:30:00.881Z,4.4
2018-11-21T13:35:00.873Z,4.2
2018-11-21T13:40:00.876Z,4.2
2018-11-21T13:45:00.879Z,4.1
2018-11-21T13:50:00.891Z,4.0
2018-11-21T13:55:00.883Z,3.8
2018-11-21T14:00:00.896Z,3.4
2018-11-21T14:05:01.493Z,3.0
2018-11-21T14:15:00.949Z,2.4
2018-11-21T14:20:00.884Z,2.0
2018-11-21T14:25:00.897Z,2.0
2018-11-21T14:30:00.900Z,2.3
2018-11-21T14:35:00.890Z,2.8
2018-11-21T14:40:00.897Z,2.8
2018-11-21T14:45:00.910Z,2.9
2018-11-21T14:50:00.906Z,3.3
2018-11-21T14:55:00.911Z,3.0
2018-11-21T15:00:00.999Z,2.5
2018-11-21T15:05:00.914Z,2.5
2018-11-21T15:10:01.241Z,2.8
2018-11-21T15:15:00.971Z,2.6
2018-11-21T15:20:01.490Z,2.9
2018-11-21T15:25:00.916Z,3.0
2018-11-21T15:30:00.920Z,3.4
2018-11-21T15:40:00.921Z,3.3
2018-11-21T15:45:01.022Z,3.4
2018-11-21T15:50:00.928Z,3.9
2018-11-21T15:55:00.922Z,4.1
2018-11-21T16:00:00.924Z,4.7
2018-11-21T16:05:00.934Z,4.5
2018-11-21T16:10:00.924Z,4.5
2018-11-21T16:15:00.930Z,4.4
2018-11-21T16:20:00.930Z,4.4
2018-11-21T16:25:00.996Z,4.4
2018-11-21T16:30:00.975Z,4.4
2018-11-21T16:35:00.982Z,4.4
2018-11-21T16:40:00.969Z,4.6
2018-11-21T16:45:03.522Z,4.6
2018-11-21T16:50:01.345Z,4.7
2018-11-21T16:55:00.999Z,4.7
2018-11-21T17:00:00.987Z,4.7
2018-11-21T17:05:01.003Z,4.6
2018-11-21T17:10:00.962Z,4.5
2018-11-21T17:15:01.150Z,4.4
2018-11-21T17:20:00.967Z,4.6
2018-11-21T17:25:01.673Z,4.8
2018-11-21T17:30:02.537Z,4.7
2018-11-21T17:35:00.976Z,4.8
2018-11-21T17:40:00.962Z,4.9
2018-11-21T17:45:00.990Z,5.3
2018-11-21T17:50:00.996Z,5.1
2018-11-21T17:55:01.003Z,5.2
2018-11-21T18:00:00.974Z,5.1
2018-11-21T18:05:01.004Z,5.3
2018-11-21T18:10:00.999Z,4.9
2018-11-21T18:15:00.976Z,5.4
2018-11-21T18:20:01.005Z,5.9
2018-11-21T18:25:00.975Z,5.8
2018-11-21T18:30:01.770Z,5.6
2018-11-21T18:35:00.994Z,6.0
2018-11-21T18:40:00.985Z,6.0
2018-11-21T18:45:00.997Z,5.7
2018-11-21T18:50:00.986Z,5.7
2018-11-21T18:55:01.499Z,6.1
2018-11-21T19:00:01.023Z,6.4
2018-11-21T19:05:01.018Z,6.8
2018-11-21T19:10:01.027Z,7.8
2018-11-21T19:15:01.030Z,8.9
2018-11-21T19:20:01.031Z,9.6
2018-11-21T19:25:01.033Z,10.0
2018-11-21T19:30:01.199Z,10.5
2018-11-21T19:35:01.049Z,10.9
2018-11-21T19:40:02.120Z,11.8
2018-11-21T19:45:01.036Z,12.3
2018-11-21T19:50:01.014Z,12.4
2018-11-21T19:55:01.022Z,12.7
2018-11-21T20:00:01.203Z,12.8
2018-11-21T20:10:01.023Z,13.4
2018-11-21T20:15:01.019Z,14.2
2018-11-21T20:20:01.057Z,14.3
2018-11-21T20:25:01.056Z,14.5
2018-11-21T20:30:01.332Z,13.8
2018-11-21T20:35:01.875Z,13.8
2018-11-21T20:40:01.030Z,13.2
2018-11-21T20:45:01.035Z,13.0
2018-11-21T20:50:01.039Z,12.9
2018-11-21T21:00:01.041Z,13.0
2018-11-21T21:05:01.047Z,12.7
2018-11-21T21:10:01.043Z,12.9
2018-11-21T21:15:01.097Z,12.3
2018-11-21T21:20:01.042Z,11.6
2018-11-21T21:25:02.077Z,11.1
2018-11-21T21:30:01.093Z,10.7
2018-11-21T21:35:01.051Z,9.8
2018-11-21T21:40:01.055Z,10.1
2018-11-21T21:45:01.088Z,10.3
2018-11-21T21:50:01.056Z,10.4
2018-11-21T21:55:01.088Z,11.3
2018-11-21T22:00:01.540Z,12.0
2018-11-21T22:05:02.399Z,12.4
2018-11-21T22:10:01.083Z,12.8
2018-11-21T22:15:01.076Z,13.2
2018-11-21T22:20:01.099Z,13.1
2018-11-21T22:25:01.101Z,13.3
2018-11-21T22:30:01.197Z,12.6
2018-11-21T22:35:01.134Z,11.9
2018-11-21T22:40:01.493Z,10.9
2018-11-21T22:45:01.303Z,9.8
2018-11-21T22:50:01.119Z,8.6
2018-11-21T22:55:01.164Z,7.9
2018-11-21T23:00:01.115Z,7.4
2018-11-21T23:05:02.301Z,7.0
2018-11-21T23:10:01.121Z,6.9
2018-11-21T23:15:01.109Z,7.1
2018-11-21T23:20:01.127Z,7.0
2018-11-21T23:25:01.129Z,7.3
2018-11-21T23:30:06.125Z,7.4
2018-11-21T23:35:01.140Z,7.5
2018-11-21T23:40:01.460Z,7.3
2018-11-21T23:45:06.119Z,7.6
2018-11-21T23:50:01.137Z,7.3
